Time;durP1;ratioP1;P1;durP2;ratioP2;P2;SDS_P1;SDS_P2;PMS_P1;PMS_P2;Temp;Humidity;BMP_temperature;BMP_pressure;BME280_temperature;BME280_humidity;BME280_pressure;Samples;Min_cycle;Max_cycle;Signal;HPM_P1;HPM_P2
2022/09/30 00:01:28;;;;;;;4.30;1.73;;;5.90;99.90;;;;;;5081661;28;20072;-67
2022/09/30 00:03:56;;;;;;;4.38;2.00;;;5.90;99.90;;;;;;5085570;28;20389;-69
2022/09/30 00:06:22;;;;;;;2.53;1.70;;;5.90;99.90;;;;;;5084270;28;20079;-66
2022/09/30 00:08:48;;;;;;;4.35;2.17;;;5.80;99.90;;;;;;5087116;28;20104;-66
2022/09/30 00:11:17;;;;;;;4.00;1.98;;;5.80;99.90;;;;;;5077272;28;20055;-66
2022/09/30 00:13:45;;;;;;;5.00;1.65;;;5.80;99.90;;;;;;5074889;28;20047;-67
2022/09/30 00:16:12;;;;;;;6.32;1.80;;;5.80;99.90;;;;;;5082205;28;20051;-66
2022/09/30 00:18:39;;;;;;;4.20;2.10;;;5.80;99.90;;;;;;5071315;28;20044;-67
2022/09/30 00:21:05;;;;;;;9.48;2.40;;;5.80;99.90;;;;;;5070607;28;20056;-66
2022/09/30 00:23:31;;;;;;;3.97;2.70;;;5.80;99.90;;;;;;5075679;28;20052;-66
2022/09/30 00:25:59;;;;;;;5.13;2.05;;;5.80;99.90;;;;;;5068329;28;20075;-66
2022/09/30 00:28:25;;;;;;;2.90;1.75;;;5.80;99.90;;;;;;5069127;28;20043;-66
2022/09/30 00:30:51;;;;;;;4.20;2.20;;;5.80;99.90;;;;;;5060120;28;20433;-66
2022/09/30 00:33:17;;;;;;;4.40;2.05;;;5.70;99.90;;;;;;5078309;28;20060;-66
2022/09/30 00:35:42;;;;;;;;;;;5.70;99.90;;;;;;5067991;28;20044;-66
2022/09/30 00:38:08;;;;;;;2.50;1.85;;;5.70;99.90;;;;;;5078194;28;19962;-66
2022/09/30 00:40:36;;;;;;;;;;;5.60;99.90;;;;;;5068467;28;20043;-66
2022/09/30 00:43:02;;;;;;;5.93;2.28;;;5.70;99.90;;;;;;5046354;28;19920;-68
2022/09/30 00:45:31;;;;;;;3.97;2.13;;;5.70;99.90;;;;;;5065433;28;20113;-66
2022/09/30 00:48:07;;;;;;;5.85;2.45;;;5.70;99.90;;;;;;5072375;28;20518;-70
2022/09/30 00:50:36;;;;;;;6.43;2.15;;;5.60;99.90;;;;;;5063394;28;20044;-71
2022/09/30 00:53:11;;;;;;;7.43;2.30;;;5.70;99.90;;;;;;5066839;28;20733;-66
2022/09/30 00:55:58;;;;;;;6.63;2.35;;;5.70;99.90;;;;;;5062415;28;20062;-67
2022/09/30 00:58:29;;;;;;;3.30;2.00;;;5.70;99.90;;;;;;5073671;28;20041;-71
2022/09/30 01:00:58;;;;;;;2.42;1.67;;;5.60;99.90;;;;;;5064795;28;20600;-67
2022/09/30 01:03:24;;;;;;;3.63;2.10;;;5.60;99.90;;;;;;5073983;28;20036;-67
2022/09/30 01:05:51;;;;;;;14.45;2.33;;;5.60;99.90;;;;;;5058916;28;20039;-66
2022/09/30 01:08:19;;;;;;;7.57;2.30;;;5.60;99.90;;;;;;5067795;28;20060;-66
2022/09/30 01:10:45;;;;;;;3.38;2.58;;;5.60;99.90;;;;;;5063659;28;20048;-68
2022/09/30 01:13:13;;;;;;;6.43;2.30;;;5.60;99.90;;;;;;5061572;28;20040;-68
2022/09/30 01:16:08;;;;;;;5.82;2.20;;;5.60;99.90;;;;;;5066511;28;20131;-66
2022/09/30 01:19:07;;;;;;;7.53;2.60;;;5.60;99.90;;;;;;5070826;28;20101;-66
2022/09/30 01:22:13;;;;;;;3.83;2.28;;;5.60;99.90;;;;;;5062656;28;20045;-66
2022/09/30 01:25:03;;;;;;;8.52;1.98;;;5.60;99.90;;;;;;5061242;28;20044;-67
2022/09/30 01:27:31;;;;;;;3.38;2.00;;;5.60;99.90;;;;;;5074178;28;20043;-67
2022/09/30 01:30:26;;;;;;;6.30;2.22;;;5.60;99.90;;;;;;5063206;28;20037;-67
2022/09/30 01:33:05;;;;;;;2.70;1.90;;;5.70;99.90;;;;;;5074991;28;20147;-67
2022/09/30 01:35:38;;;;;;;2.28;1.77;;;5.60;99.90;;;;;;5065444;28;20048;-66
2022/09/30 01:38:16;;;;;;;2.78;2.15;;;5.70;99.90;;;;;;5080261;28;20036;-66
2022/09/30 01:41:04;;;;;;;5.03;2.15;;;5.60;99.90;;;;;;5066143;28;20043;-66
2022/09/30 01:43:49;;;;;;;3.15;2.22;;;5.60;99.90;;;;;;5057979;28;20052;-68
2022/09/30 01:46:37;;;;;;;4.28;2.40;;;5.60;99.90;;;;;;5067482;28;20040;-70
2022/09/30 01:49:24;;;;;;;5.40;2.20;;;5.60;99.90;;;;;;5068342;28;20044;-66
2022/09/30 01:52:16;;;;;;;10.00;2.22;;;5.60;99.90;;;;;;5075594;28;20039;-66
2022/09/30 01:55:03;;;;;;;13.25;2.58;;;5.50;99.90;;;;;;5055316;28;20051;-66
2022/09/30 01:57:49;;;;;;;;;;;5.50;99.90;;;;;;5069911;28;20512;-67
2022/09/30 02:00:15;;;;;;;2.88;2.05;;;5.40;99.90;;;;;;5058165;28;19916;-66
2022/09/30 02:02:56;;;;;;;3.38;1.80;;;5.30;99.90;;;;;;5073593;28;20094;-67
2022/09/30 02:05:41;;;;;;;5.57;2.63;;;;;;;;;;5065052;28;20052;-67
2022/09/30 02:08:15;;;;;;;4.05;2.20;;;;;;;;;;5074104;28;20143;-65
2022/09/30 02:10:44;;;;;;;3.85;2.35;;;;;;;;;;5063511;28;20700;-66
2022/09/30 02:13:14;;;;;;;5.50;2.00;;;;;;;;;;5060577;28;20036;-66
2022/09/30 02:15:43;;;;;;;4.80;2.35;;;;;;;;;;5064234;28;20040;-66
2022/09/30 02:18:18;;;;;;;19.52;2.70;;;;;;;;;;5075264;28;20087;-66
2022/09/30 02:20:46;;;;;;;2.60;2.13;;;;;;;;;;5064922;28;20048;-66
2022/09/30 02:23:20;;;;;;;4.72;2.47;;;;;;;;;;5074936;28;20281;-66
2022/09/30 02:25:59;;;;;;;4.13;2.20;;;;;;;;;;5068288;28;20518;-67
2022/09/30 02:28:29;;;;;;;4.32;2.33;;;;;;;;;;5067316;28;20081;-67
2022/09/30 02:30:58;;;;;;;4.57;2.22;;;;;;;;;;5065051;28;20039;-66
2022/09/30 02:33:28;;;;;;;4.15;2.38;;;;;;;;;;5074382;28;20040;-67
2022/09/30 02:35:57;;;;;;;5.20;2.00;;;;;;;;;;5067346;28;20105;-66
2022/09/30 02:38:28;;;;;;;6.78;3.20;;;;;;;;;;5065683;28;20529;-66
2022/09/30 02:41:01;;;;;;;4.35;2.20;;;;;;;;;;5064773;28;20162;-66
2022/09/30 02:43:28;;;;;;;6.65;2.25;;;;;;;;;;5054399;28;20472;-67
2022/09/30 02:46:01;;;;;;;4.75;2.47;;;;;;;;;;5056221;28;20079;-66
2022/09/30 02:48:31;;;;;;;6.82;3.17;;;;;;;;;;5070625;28;20106;-66
2022/09/30 02:50:57;;;;;;;18.40;4.63;;;;;;;;;;5065513;28;20040;-66
2022/09/30 02:53:37;;;;;;;6.30;2.72;;;;;;;;;;5069536;28;20040;-66
2022/09/30 02:56:22;;;;;;;3.10;2.20;;;;;;;;;;5057871;28;20447;-66
2022/09/30 02:58:49;;;;;;;5.13;2.53;;;;;;;;;;5066118;28;20044;-66
2022/09/30 03:01:16;;;;;;;5.28;3.58;;;;;;;;;;5068044;28;20061;-67
2022/09/30 03:03:44;;;;;;;5.00;2.55;;;;;;;;;;5068754;28;20041;-70
2022/09/30 03:06:11;;;;;;;6.40;2.80;;;;;;;;;;5064311;28;20101;-68
2022/09/30 03:08:37;;;;;;;7.10;2.65;;;;;;;;;;5064071;28;20118;-66
2022/09/30 03:11:04;;;;;;;5.90;2.38;;;;;;;;;;5064579;28;20223;-67
2022/09/30 03:13:49;;;;;;;3.42;2.08;;;;;;;;;;5059195;28;20046;-66
2022/09/30 03:16:30;;;;;;;6.75;2.40;;;;;;;;;;5069816;28;20443;-67
2022/09/30 03:18:56;;;;;;;4.88;2.50;;;;;;;;;;5068364;28;20037;-67
2022/09/30 03:21:47;;;;;;;3.15;2.60;;;;;;;;;;5070757;28;20085;-66
2022/09/30 03:24:32;;;;;;;6.03;3.05;;;;;;;;;;5066006;28;20051;-67
2022/09/30 03:27:11;;;;;;;4.85;3.15;;;;;;;;;;5075340;28;20428;-66
2022/09/30 03:29:44;;;;;;;8.52;3.00;;;;;;;;;;5060543;28;20041;-65
2022/09/30 03:32:10;;;;;;;6.22;3.22;;;;;;;;;;5071144;28;20075;-70
2022/09/30 03:34:45;;;;;;;5.18;2.75;;;;;;;;;;5064256;28;20040;-66
2022/09/30 03:37:17;;;;;;;6.07;3.33;;;;;;;;;;5077358;28;20104;-66
2022/09/30 03:40:12;;;;;;;3.85;2.53;;;;;;;;;;5061420;28;20382;-68
2022/09/30 03:42:47;;;;;;;3.40;2.35;;;;;;;;;;5047422;28;20055;-68
2022/09/30 03:45:27;;;;;;;7.53;3.08;;;;;;;;;;5061467;28;20090;-66
2022/09/30 03:47:56;;;;;;;5.35;2.80;;;;;;;;;;5071257;28;20050;-67
2022/09/30 03:50:24;;;;;;;6.30;2.80;;;;;;;;;;5070417;28;20040;-66
2022/09/30 03:52:50;;;;;;;6.32;3.75;;;;;;;;;;5073491;28;20102;-66
2022/09/30 03:55:18;;;;;;;5.78;3.25;;;;;;;;;;5073489;28;20699;-66
2022/09/30 03:57:44;;;;;;;7.10;2.97;;;;;;;;;;5076763;28;20048;-68
2022/09/30 04:00:11;;;;;;;5.05;3.13;;;;;;;;;;5068168;28;20043;-66
2022/09/30 04:02:37;;;;;;;8.25;3.25;;;;;;;;;;5077667;28;20044;-67
2022/09/30 04:05:04;;;;;;;11.50;3.20;;;;;;;;;;5068545;28;20662;-67
2022/09/30 04:07:31;;;;;;;5.90;3.17;;;;;;;;;;5078889;28;20037;-67
2022/09/30 04:09:57;;;;;;;5.72;3.03;;;;;;;;;;5071743;28;20792;-66
2022/09/30 04:12:23;;;;;;;6.47;2.92;;;;;;;;;;5063211;28;20049;-67
2022/09/30 04:14:49;;;;;;;6.53;2.95;;;;;;;;;;5064695;28;20040;-67
2022/09/30 04:17:15;;;;;;;8.45;3.38;;;;;;;;;;5080291;28;20036;-67
2022/09/30 04:19:41;;;;;;;8.25;3.25;;;;;;;;;;5069962;28;20033;-67
2022/09/30 04:22:08;;;;;;;7.32;3.25;;;;;;;;;;5080112;28;20032;-67
2022/09/30 04:24:34;;;;;;;8.50;2.80;;;;;;;;;;5068037;28;20093;-67
2022/09/30 04:27:00;;;;;;;6.15;3.25;;;;;;;;;;5078662;28;20044;-66
2022/09/30 04:29:26;;;;;;;10.52;3.58;;;;;;;;;;5068649;28;20037;-67
2022/09/30 04:31:52;;;;;;;8.00;3.03;;;;;;;;;;5064563;28;20048;-66
2022/09/30 04:34:19;;;;;;;7.97;2.90;;;;;;;;;;5069085;28;20082;-66
2022/09/30 04:36:45;;;;;;;6.35;3.28;;;;;;;;;;5063261;28;20610;-66
2022/09/30 04:39:11;;;;;;;5.38;3.10;;;;;;;;;;5070189;28;20032;-67
2022/09/30 04:41:37;;;;;;;7.13;3.42;;;;;;;;;;5067884;28;20083;-66
2022/09/30 04:44:06;;;;;;;4.72;3.08;;;;;;;;;;5061792;28;20692;-67
2022/09/30 04:46:35;;;;;;;10.25;3.47;;;;;;;;;;5065684;28;20629;-67
2022/09/30 04:49:01;;;;;;;10.68;2.97;;;;;;;;;;5069992;28;20519;-68
2022/09/30 04:51:28;;;;;;;4.28;2.63;;;;;;;;;;5069331;28;20115;-67
2022/09/30 04:53:55;;;;;;;4.50;2.80;;;;;;;;;;5071548;28;20056;-66
2022/09/30 04:56:22;;;;;;;7.53;3.13;;;;;;;;;;5066127;28;20032;-66
2022/09/30 04:58:48;;;;;;;7.10;2.65;;;;;;;;;;5072676;28;20431;-64
2022/09/30 05:01:16;;;;;;;7.38;3.13;;;;;;;;;;5067956;28;20043;-64
2022/09/30 05:03:45;;;;;;;7.07;3.97;;;;;;;;;;5073192;28;20109;-64
2022/09/30 05:06:13;;;;;;;7.03;3.38;;;;;;;;;;5059882;28;20090;-63
2022/09/30 05:08:41;;;;;;;5.22;3.28;;;;;;;;;;5063664;28;20586;-61
2022/09/30 05:11:08;;;;;;;10.32;3.42;;;;;;;;;;5064692;28;20492;-62
2022/09/30 05:13:36;;;;;;;10.05;4.82;;;;;;;;;;5059939;28;20044;-63
2022/09/30 05:16:02;;;;;;;6.72;3.03;;;;;;;;;;5057753;28;20269;-62
2022/09/30 05:18:28;;;;;;;9.18;3.05;;;;;;;;;;5065388;28;20033;-62
2022/09/30 05:20:58;;;;;;;3.42;2.67;;;;;;;;;;5056185;28;20064;-66
2022/09/30 05:23:25;;;;;;;9.05;2.92;;;;;;;;;;5058139;28;20117;-64
2022/09/30 05:25:51;;;;;;;8.20;3.08;;;;;;;;;;5059677;28;20075;-64
2022/09/30 05:28:17;;;;;;;6.10;3.03;;;;;;;;;;5062767;28;21820;-64
2022/09/30 05:30:44;;;;;;;5.82;3.30;;;;;;;;;;5061791;28;20040;-64
2022/09/30 05:33:11;;;;;;;3.90;2.70;;;;;;;;;;5072214;28;20479;-64
2022/09/30 05:35:38;;;;;;;7.55;3.38;;;;;;;;;;5054963;28;20036;-63
2022/09/30 05:38:05;;;;;;;6.20;3.20;;;;;;;;;;5063917;28;20075;-63
2022/09/30 05:40:31;;;;;;;6.97;3.38;;;;;;;;;;5053643;28;20863;-64
2022/09/30 05:42:58;;;;;;;4.88;3.42;;;;;;;;;;5060154;28;20397;-63
2022/09/30 05:45:24;;;;;;;6.10;3.53;;;;;;;;;;5060303;28;20562;-65
2022/09/30 05:47:51;;;;;;;5.07;2.92;;;;;;;;;;5069315;28;20043;-64
2022/09/30 05:50:17;;;;;;;8.23;3.65;;;;;;;;;;5056361;28;20793;-64
2022/09/30 05:52:43;;;;;;;4.88;2.78;;;;;;;;;;5066911;28;20032;-64
2022/09/30 05:55:09;;;;;;;4.70;2.75;;;;;;;;;;5063552;28;20098;-66
2022/09/30 05:57:35;;;;;;;6.28;3.17;;;;;;;;;;5061773;28;20052;-64
2022/09/30 06:00:01;;;;;;;6.72;3.00;;;;;;;;;;5056595;28;20033;-67
2022/09/30 06:02:27;;;;;;;6.72;2.95;;;;;;;;;;5064861;28;20097;-64
2022/09/30 06:04:53;;;;;;;8.10;3.30;;;;;;;;;;5066264;28;20044;-65
2022/09/30 06:07:19;;;;;;;;;;;;;;;;;;5073205;28;20040;-65
2022/09/30 06:09:45;;;;;;;6.83;3.77;;;;;;;;;;5060489;28;19920;-67
2022/09/30 06:12:11;;;;;;;6.80;3.40;;;;;;;;;;5062989;28;20044;-66
2022/09/30 06:14:37;;;;;;;6.80;3.67;;;;;;;;;;5060959;28;20090;-64
2022/09/30 06:17:05;;;;;;;7.28;3.83;;;;;;;;;;5070688;28;20150;-65
2022/09/30 06:19:31;;;;;;;9.13;4.22;;;;;;;;;;5069430;28;20044;-65
2022/09/30 06:21:58;;;;;;;5.00;2.90;;;;;;;;;;5072364;28;20591;-65
2022/09/30 06:24:24;;;;;;;7.05;3.60;;;;;;;;;;5063363;28;20055;-69
2022/09/30 06:26:50;;;;;;;5.45;3.38;;;;;;;;;;5063605;28;20716;-63
2022/09/30 06:29:18;;;;;;;5.70;3.90;;;;;;;;;;5061231;28;20111;-66
2022/09/30 06:31:44;;;;;;;6.00;3.55;;;;;;;;;;5067268;28;20058;-65
2022/09/30 06:34:10;;;;;;;4.93;3.25;;;;;;;;;;5067895;28;20047;-66
2022/09/30 06:36:36;;;;;;;5.45;3.55;;;;;;;;;;5058507;28;20082;-65
2022/09/30 06:39:03;;;;;;;9.60;4.43;;;;;;;;;;5064872;28;20419;-65
2022/09/30 06:41:30;;;;;;;14.55;5.43;;;;;;;;;;5056404;28;20511;-64
2022/09/30 06:43:56;;;;;;;13.90;5.50;;;;;;;;;;5059019;28;20036;-64
2022/09/30 06:46:24;;;;;;;9.30;4.15;;;;;;;;;;5063114;28;20048;-66
2022/09/30 06:48:54;;;;;;;10.05;4.65;;;;;;;;;;5064513;28;20106;-64
2022/09/30 06:51:20;;;;;;;9.98;4.93;;;;;;;;;;5056054;28;20036;-66
2022/09/30 06:53:49;;;;;;;14.60;5.65;;;;;;;;;;5062912;28;20492;-67
2022/09/30 06:56:17;;;;;;;18.30;5.45;;;;;;;;;;5055913;28;21017;-66
2022/09/30 06:58:44;;;;;;;8.57;4.55;;;;;;;;;;5064433;28;20066;-66
2022/09/30 07:01:13;;;;;;;9.80;4.53;;;;;;;;;;5070045;28;20058;-66
2022/09/30 07:03:39;;;;;;;8.05;3.47;;;;;;;;;;5070213;28;20048;-65
2022/09/30 07:06:05;;;;;;;8.13;4.13;;;;;;;;;;5065361;28;20562;-67
2022/09/30 07:08:32;;;;;;;8.45;4.45;;;;;;;;;;5073242;28;20041;-66
2022/09/30 07:10:59;;;;;;;10.32;4.50;;;;;;;;;;5062308;28;20036;-66
2022/09/30 07:13:25;;;;;;;10.50;4.97;;;;;;;;;;5064595;28;20068;-65
2022/09/30 07:15:55;;;;;;;12.18;4.50;;;;;;;;;;5053619;28;20041;-67
2022/09/30 07:18:21;;;;;;;13.75;4.57;;;;;;;;;;5055822;28;20072;-66
2022/09/30 07:20:48;;;;;;;10.43;4.63;;;;;;;;;;5054598;28;20036;-67
2022/09/30 07:23:14;;;;;;;13.43;5.75;;;;;;;;;;5063419;28;20115;-65
2022/09/30 07:25:48;;;;;;;16.35;6.10;;;;;;;;;;5051459;28;20536;-65
2022/09/30 07:28:14;;;;;;;16.00;5.00;;;;;;;;;;5060262;28;20040;-65
2022/09/30 07:30:42;;;;;;;12.65;4.82;;;;;;;;;;5054326;28;20519;-65
2022/09/30 07:33:08;;;;;;;19.02;7.28;;;;;;;;;;5067182;28;20120;-64
2022/09/30 07:35:34;;;;;;;12.65;4.95;;;;;;;;;;5055392;28;20450;-64
2022/09/30 07:38:00;;;;;;;18.83;5.88;;;;;;;;;;5067671;28;20068;-65
2022/09/30 07:40:30;;;;;;;;;;;;;;;;;;5058569;28;20037;-65
2022/09/30 07:42:56;;;;;;;8.98;4.78;;;;;;;;;;5060858;28;19920;-64
2022/09/30 07:45:23;;;;;;;12.52;4.78;;;;;;;;;;5061559;28;20045;-63
2022/09/30 07:47:50;;;;;;;8.15;4.13;;;;;;;;;;5067888;28;20059;-66
2022/09/30 07:50:16;;;;;;;11.02;4.88;;;;;;;;;;5066079;28;20562;-66
2022/09/30 07:52:42;;;;;;;8.00;4.88;;;;;;;;;;5065131;28;20041;-66
2022/09/30 07:55:08;;;;;;;11.05;4.93;;;;;;;;;;5061905;28;20055;-68
2022/09/30 07:57:34;;;;;;;9.25;4.70;;;;;;;;;;5072105;28;20087;-65
2022/09/30 08:00:00;;;;;;;7.95;4.55;;;;;;;;;;5062866;28;20033;-65
2022/09/30 08:02:27;;;;;;;11.85;4.88;;;;;;;;;;5062488;28;20041;-65
2022/09/30 08:04:53;;;;;;;13.25;5.60;;;;;;;;;;5067229;28;20573;-65
2022/09/30 08:07:19;;;;;;;;;;;;;;;;;;5068607;28;20068;-66
2022/09/30 08:09:45;;;;;;;7.40;4.30;;;;;;;;;;5063780;28;19927;-65
2022/09/30 08:12:11;;;;;;;11.27;4.53;;;;;;;;;;5061169;28;20146;-68
2022/09/30 08:14:37;;;;;;;5.70;4.20;;;;;;;;;;5062977;28;20059;-65
2022/09/30 08:17:03;;;;;;;7.28;4.60;;;;;;;;;;5068995;28;20048;-67
2022/09/30 08:19:32;;;;;;;8.43;4.07;;;;;;;;;;5070027;28;20052;-66
2022/09/30 08:21:58;;;;;;;8.20;4.22;;;;;;;;;;5068698;28;20195;-66
2022/09/30 08:24:25;;;;;;;8.75;5.18;;;;;;;;;;5079754;28;20036;-65
2022/09/30 08:26:51;;;;;;;13.90;5.72;;;;;;;;;;5079051;28;20055;-66
2022/09/30 08:29:17;;;;;;;10.05;4.32;;;;;;;;;;5058354;28;20151;-68
2022/09/30 08:31:43;;;;;;;13.30;5.25;;;;;;;;;;5056388;28;20780;-66
2022/09/30 08:34:09;;;;;;;7.75;4.32;;;;;;;;;;5065174;28;20501;-65
2022/09/30 08:36:35;;;;;;;7.88;4.30;;;;;;;;;;5059033;28;20047;-66
2022/09/30 08:39:01;;;;;;;7.82;4.28;;;;;;;;;;5070470;28;20401;-65
2022/09/30 08:41:46;;;;;;;7.18;3.75;;;;;;;;;;5070341;28;20066;-66
2022/09/30 08:44:21;;;;;;;7.38;3.58;;;;;;;;;;5077239;28;20203;-65
2022/09/30 08:46:48;;;;;;;5.43;3.72;;;;;;;;;;5080767;28;20105;-66
2022/09/30 08:49:14;;;;;;;;;;;;;;;;;;5071812;28;20033;-66
2022/09/30 08:51:45;;;;;;;9.20;4.03;;;;;;;;;;5068972;28;20267;-66
2022/09/30 08:54:14;;;;;;;7.82;4.25;;;;;;;;;;5078159;28;20040;-66
2022/09/30 08:56:42;;;;;;;8.57;3.80;;;;;;;;;;5065033;28;20067;-66
2022/09/30 08:59:27;;;;;;;6.18;3.80;;;;;;;;;;5064138;28;20589;-65
2022/09/30 09:01:58;;;;;;;6.72;3.42;;;;;;;;;;5076112;28;20060;-65
2022/09/30 09:04:24;;;;;;;5.93;3.17;;;;;;;;;;5060436;28;20378;-67
2022/09/30 09:06:53;;;;;;;;;;;;;;;;;;5068071;28;20477;-67
2022/09/30 09:09:38;;;;;;;9.35;4.00;;;;;;;;;;5061234;28;19921;-65
2022/09/30 09:12:14;;;;;;;6.30;3.42;;;;;;;;;;5060002;28;20460;-65
2022/09/30 09:14:51;;;;;;;7.55;3.15;;;;;;;;;;5061936;28;20051;-64
2022/09/30 09:17:36;;;;;;;9.60;3.42;;;;;;;;;;5060137;28;20044;-66
2022/09/30 09:20:16;;;;;;;10.43;3.95;;;;;;;;;;5064234;28;20055;-67
2022/09/30 09:22:44;;;;;;;6.88;3.65;;;;;;;;;;5067373;28;20036;-67
2022/09/30 09:25:15;;;;;;;9.75;3.33;;;;;;;;;;5059316;28;20059;-65
2022/09/30 09:27:47;;;;;;;5.53;2.60;;;;;;;;;;5065857;28;20571;-66
2022/09/30 09:30:15;;;;;;;8.93;3.00;;;;;;;;;;5063000;28;20036;-65
2022/09/30 09:32:42;;;;;;;5.32;3.10;;;;;;;;;;5065042;28;20045;-66
2022/09/30 09:35:15;;;;;;;9.40;3.28;;;;;;;;;;5041849;23;20120;-66
2022/09/30 09:40:33;;;;;;;5.95;3.53;;;;;;;;;;5023696;28;20061;-66
2022/09/30 09:43:18;;;;;;;6.05;3.65;;;;;;;;;;5024860;28;20037;-67
2022/09/30 09:45:47;;;;;;;7.72;3.65;;;;;;;;;;5025127;28;20092;-66
2022/09/30 09:48:16;;;;;;;4.95;3.28;;;;;;;;;;5005544;28;20111;-65
2022/09/30 09:50:42;;;;;;;6.30;2.78;;;;;;;;;;5025148;28;20045;-66
2022/09/30 09:53:08;;;;;;;;;;;;;;;;;;5020972;28;20089;-66
2022/09/30 09:55:36;;;;;;;3.90;2.50;;;;;;;;;;5028963;28;19923;-66
2022/09/30 09:58:06;;;;;;;5.72;2.97;;;;;;;;;;5024998;28;20079;-66
2022/09/30 10:03:18;;;;;;;5.85;3.08;;;;;;;;;;5025285;28;20053;-66
2022/09/30 10:05:46;;;;;;;4.95;2.65;;;;;;;;;;5025119;28;20076;-67
2022/09/30 10:08:15;;;;;;;6.35;3.03;;;;;;;;;;5024554;28;20751;-66
2022/09/30 10:10:43;;;;;;;5.80;3.00;;;;;;;;;;5022034;28;20441;-67
2022/09/30 10:13:15;;;;;;;6.53;2.80;;;;;;;;;;5022407;28;20037;-66
2022/09/30 10:15:42;;;;;;;4.97;2.60;;;;;;;;;;5021830;28;20037;-67
2022/09/30 10:18:15;;;;;;;4.93;3.05;;;;;;;;;;5024017;28;20057;-67
2022/09/30 10:20:49;;;;;;;5.82;2.63;;;;;;;;;;5022087;28;20041;-67
2022/09/30 10:23:35;;;;;;;4.88;2.70;;;;;;;;;;5024062;28;20548;-66
2022/09/30 10:26:16;;;;;;;7.15;3.35;;;;;;;;;;5021782;28;20045;-66
2022/09/30 10:28:47;;;;;;;7.75;3.45;;;;;;;;;;5030070;28;20528;-66
2022/09/30 10:31:23;;;;;;;7.05;3.28;;;;;;;;;;5028451;28;20124;-65
2022/09/30 10:33:49;;;;;;;;;;;;;;;;;;5024730;28;20044;-66
2022/09/30 10:36:19;;;;;;;5.13;2.40;;;;;;;;;;5025639;28;19917;-65
2022/09/30 10:38:53;;;;;;;4.50;3.03;;;;;;;;;;5020764;28;20037;-65
2022/09/30 10:41:30;;;;;;;6.15;2.83;;;;;;;;;;5028273;28;20128;-65
2022/09/30 10:43:59;;;;;;;5.78;3.05;;;;;;;;;;5028061;28;20708;-65
2022/09/30 10:46:31;;;;;;;5.82;2.90;;;;;;;;;;5017652;28;20406;-65
2022/09/30 10:48:58;;;;;;;4.30;2.70;;;;;;;;;;5028618;28;20045;-66
2022/09/30 10:51:26;;;;;;;9.85;2.95;;;;;;;;;;5032751;28;20030;-66
2022/09/30 10:53:53;;;;;;;8.70;2.58;;;;;;;;;;5028221;28;20041;-64
2022/09/30 10:56:45;;;;;;;4.25;2.60;;;;;;;;;;4996944;28;20088;-66
2022/09/30 10:59:15;;;;;;;5.68;2.08;;;;;;;;;;5019278;28;20061;-66
2022/09/30 11:01:46;;;;;;;4.72;2.25;;;;;;;;;;5016099;28;20163;-64
2022/09/30 11:04:18;;;;;;;3.17;2.30;;;;;;;;;;5031567;28;20094;-65
2022/09/30 11:06:46;;;;;;;5.15;2.10;;;;;;;;;;5039774;28;20106;-66
2022/09/30 11:09:18;;;;;;;7.88;2.58;;;;;;;;;;5035240;28;20815;-65
2022/09/30 11:11:53;;;;;;;5.30;2.42;;;;;;;;;;5037890;28;20044;-65
2022/09/30 11:14:24;;;;;;;5.25;2.05;;;;;;;;;;5034527;28;20044;-64
2022/09/30 11:16:50;;;;;;;4.07;1.90;;;;;;;;;;5035376;28;20037;-65
2022/09/30 11:19:23;;;;;;;3.80;2.08;;;;;;;;;;5031447;28;20094;-65
2022/09/30 11:21:53;;;;;;;4.90;2.05;;;;;;;;;;5045385;28;20033;-65
2022/09/30 11:24:40;;;;;;;4.65;2.03;;;;;;;;;;5030451;28;20068;-65
2022/09/30 11:27:24;;;;;;;4.70;1.92;;;;;;;;;;5029547;28;20044;-64
2022/09/30 11:30:14;;;;;;;3.35;2.00;;;;;;;;;;5024873;28;20095;-66
2022/09/30 11:32:54;;;;;;;5.60;1.85;;;;;;;;;;5033873;28;20049;-66
2022/09/30 11:35:40;;;;;;;5.03;1.80;;;;;;;;;;5038800;28;20033;-66
2022/09/30 11:38:09;;;;;;;4.18;2.03;;;;;;;;;;5034861;28;20571;-65
2022/09/30 11:40:42;;;;;;;5.22;2.13;;;;;;;;;;5038869;28;20464;-66
2022/09/30 11:43:08;;;;;;;6.63;2.40;;;;;;;;;;5040684;28;20048;-67
2022/09/30 11:45:34;;;;;;;;;;;;;;;;;;5045405;28;20451;-65
2022/09/30 11:48:24;;;;;;;6.72;1.45;;;;;;;;;;5043860;28;20023;-66
2022/09/30 11:51:09;;;;;;;3.20;1.02;;;;;;;;;;5042024;28;20114;-65
2022/09/30 11:53:55;;;;;;;4.90;1.10;;;;;;;;;;5037985;28;20132;-65
2022/09/30 11:56:27;;;;;;;1.85;1.20;;;;;;;;;;5039318;28;20110;-65
2022/09/30 11:58:57;;;;;;;3.95;1.05;;;;;;;;;;5042142;28;20041;-65
2022/09/30 12:01:55;;;;;;;1.42;0.80;;;;;;;;;;5038161;28;20147;-65
2022/09/30 12:04:28;;;;;;;1.88;0.85;;;;;;;;;;5016438;28;20041;-65
2022/09/30 12:06:54;;;;;;;3.55;1.00;;;;;;;;;;5041767;28;20049;-65
2022/09/30 12:09:20;;;;;;;;;;;;;;;;;;5043345;28;20816;-66
2022/09/30 12:11:53;;;;;;;2.90;0.77;;;;;;;;;;5041538;28;20109;-65
2022/09/30 12:14:23;;;;;;;4.07;1.00;;;;;;;;;;5041821;28;20499;-65
2022/09/30 12:16:50;;;;;;;5.53;1.17;;;;;;;;;;5041300;28;20048;-64
2022/09/30 12:19:23;;;;;;;2.95;0.90;;;;;;;;;;5040861;28;20036;-65
2022/09/30 12:21:56;;;;;;;3.53;0.85;;;;;;;;;;5039752;28;20124;-63
2022/09/30 12:24:28;;;;;;;1.73;0.73;;;;;;;;;;5039978;28;20713;-68
2022/09/30 12:26:54;;;;;;;2.72;0.70;;;;;;;;;;5041165;28;20029;-65
2022/09/30 12:32:51;;;;;;;3.33;0.68;;;;;;;;;;4943672;28;20047;-64
2022/09/30 12:35:22;;;;;;;2.92;0.80;;;;;;;;;;5024745;28;20629;-65
2022/09/30 12:38:11;;;;;;;2.30;0.88;;;;;;;;;;5046013;28;20068;-65
2022/09/30 12:40:55;;;;;;;4.28;0.70;;;;;;;;;;5027216;28;20041;-65
2022/09/30 12:43:21;;;;;;;2.58;0.63;;;;;;;;;;5041447;28;20534;-65
2022/09/30 12:45:53;;;;;;;0.35;0.35;;;;;;;;;;5040750;28;20627;-64
2022/09/30 12:48:21;;;;;;;2.10;0.45;;;;;;;;;;5026721;28;20072;-66
2022/09/30 12:50:48;;;;;;;1.75;0.50;;;;;;;;;;5040129;28;20060;-66
2022/09/30 12:53:26;;;;;;;2.45;0.50;;;;;;;;;;5046510;28;20053;-65
2022/09/30 12:55:53;;;;;;;1.60;0.60;;;;;;;;;;5045397;28;20037;-65
2022/09/30 12:58:24;;;;;;;2.70;0.52;;;;;;;;;;5046235;28;20087;-66
2022/09/30 13:01:01;;;;;;;2.22;0.60;;;;;;;;;;5039273;28;20033;-66
2022/09/30 13:03:27;;;;;;;0.70;0.40;;;;;;;;;;5045693;28;20135;-65
2022/09/30 13:05:53;;;;;;;;;;;;;;;;;;5026267;28;20037;-65
2022/09/30 13:08:19;;;;;;;3.38;0.50;;;;;;;;;;5043947;28;19921;-65
2022/09/30 13:10:46;;;;;;;;;;;;;;;;;;5044294;28;20424;-65
2022/09/30 13:13:17;;;;;;;1.70;0.57;;;;;;;;;;5045438;28;20007;-66
2022/09/30 13:15:44;;;;;;;1.27;0.60;;;;;;;;;;5039970;28;20045;-67
2022/09/30 13:18:19;;;;;;;3.25;1.13;;;;;;;;;;5026770;28;20037;-66
2022/09/30 13:20:55;;;;;;;1.60;0.55;;;;;;;;;;5039263;28;20501;-65
2022/09/30 13:23:36;;;;;;;1.98;0.50;;;;;;;;;;5029496;28;20090;-65
2022/09/30 13:26:04;;;;;;;1.95;0.65;;;;;;;;;;5038326;28;20148;-66
2022/09/30 13:28:36;;;;;;;1.90;0.70;;;;;;;;;;5041953;28;20057;-65
2022/09/30 13:31:14;;;;;;;3.53;1.08;;;;;;;;;;5037283;28;20879;-66
2022/09/30 13:33:44;;;;;;;2.17;0.70;;;;;;;;;;5040261;28;21006;-66
2022/09/30 13:36:24;;;;;;;3.08;0.80;;;;;;;;;;5040398;28;20047;-65
2022/09/30 13:39:05;;;;;;;3.35;1.70;;;;;;;;;;5040793;28;20044;-67
2022/09/30 13:41:34;;;;;;;3.25;0.68;;;;;;;;;;5037381;28;20049;-66
2022/09/30 13:44:03;;;;;;;2.25;0.70;;;;;;;;;;5043730;28;20040;-66
2022/09/30 13:46:29;;;;;;;1.00;0.50;;;;;;;;;;5038977;28;20036;-67
2022/09/30 13:48:55;;;;;;;;;;;;;;;;;;5042463;28;20048;-66
2022/09/30 13:51:24;;;;;;;3.33;0.77;;;;;;;;;;5044490;28;19920;-68
2022/09/30 13:53:53;;;;;;;1.88;0.70;;;;;;;;;;5036535;28;20110;-66
2022/09/30 13:56:24;;;;;;;2.03;0.60;;;;;;;;;;5044958;28;20041;-66
2022/09/30 13:59:08;;;;;;;1.88;0.82;;;;;;;;;;5044811;28;20144;-67
2022/09/30 14:01:41;;;;;;;3.53;0.80;;;;;;;;;;5041852;28;20044;-66
2022/09/30 14:04:07;;;;;;;1.42;0.70;;;;;;;;;;5038479;28;20049;-66
2022/09/30 14:06:32;;;;;;;;;;;;;;;;;;5041584;28;20040;-67
2022/09/30 14:09:05;;;;;;;3.08;0.80;;;;;;;;;;5040331;28;19921;-67
2022/09/30 14:11:58;;;;;;;1.00;0.55;;;;;;;;;;5028126;28;20094;-66
2022/09/30 14:14:42;;;;;;;1.40;0.80;;;;;;;;;;5036861;28;20037;-65
2022/09/30 14:17:25;;;;;;;2.15;0.70;;;;;;;;;;5038511;28;20052;-66
2022/09/30 14:20:10;;;;;;;4.47;0.60;;;;;;;;;;5039843;28;20037;-65
2022/09/30 14:22:36;;;;;;;1.10;0.55;;;;;;;;;;5044482;28;20037;-67
2022/09/30 14:25:03;;;;;;;1.02;0.60;;;;;;;;;;5043668;28;20033;-65
2022/09/30 14:27:53;;;;;;;4.60;0.80;;;;;;;;;;5044145;28;20033;-65
2022/09/30 14:30:20;;;;;;;4.47;0.80;;;;;;;;;;5023910;28;20048;-66
2022/09/30 14:32:54;;;;;;;1.95;0.75;;;;;;;;;;5036477;28;20072;-65
2022/09/30 14:35:23;;;;;;;5.38;0.95;;;;;;;;;;5040075;28;20033;-66
2022/09/30 14:37:51;;;;;;;2.85;0.82;;;;;;;;;;5045254;28;20045;-65
2022/09/30 14:40:26;;;;;;;5.03;0.90;;;;;;;;;;5045763;28;20120;-66
2022/09/30 14:42:54;;;;;;;1.20;0.60;;;;;;;;;;5044359;28;20047;-66
2022/09/30 14:45:28;;;;;;;1.67;0.73;;;;;;;;;;5043890;28;20227;-65
2022/09/30 14:47:57;;;;;;;1.48;0.50;;;;;;;;;;5043985;28;20037;-66
2022/09/30 14:50:26;;;;;;;2.78;0.60;;;;;;;;;;5039817;28;20053;-66
2022/09/30 14:52:54;;;;;;;2.97;0.68;;;;;;;;;;5035309;28;20030;-65
2022/09/30 14:55:24;;;;;;;3.00;0.68;;;;;;;;;;5040173;28;20040;-66
2022/09/30 14:58:10;;;;;;;2.72;0.60;;;;;;;;;;5042037;28;20045;-66
2022/09/30 15:00:36;;;;;;;1.58;0.68;;;;;;;;;;5006895;28;20052;-65
2022/09/30 15:03:02;;;;;;;1.60;0.90;;;;;;;;;;5041658;28;20040;-67